createdAt,value
2018-06-24T00:00:44.551Z,64.10
2018-06-24T00:03:15.202Z,62.83
2018-06-24T00:05:45.441Z,62.90
2018-06-24T00:08:16.201Z,63.23
2018-06-24T00:10:46.636Z,62.10
2018-06-24T00:13:18.725Z,60.53
2018-06-24T00:15:49.325Z,60.73
2018-06-24T00:18:19.874Z,62.67
2018-06-24T00:20:50.164Z,63.33
2018-06-24T00:23:20.789Z,63.53
2018-06-24T00:25:51.570Z,62.77
2018-06-24T00:28:22.280Z,63.17
2018-06-24T00:30:53.178Z,61.97
2018-06-24T00:33:23.722Z,62.13
2018-06-24T00:35:55.072Z,60.80
2018-06-24T00:38:25.253Z,60.73
2018-06-24T00:40:55.516Z,61.60
2018-06-24T00:43:25.861Z,60.90
2018-06-24T00:45:56.084Z,59.27
2018-06-24T00:48:26.381Z,60.20
2018-06-24T00:50:56.561Z,59.73
2018-06-24T00:53:27.300Z,62.40
2018-06-24T00:55:57.680Z,62.03
2018-06-24T00:58:28.774Z,60.00
2018-06-24T01:00:59.288Z,62.90
2018-06-24T01:03:30.749Z,62.47
2018-06-24T01:06:00.870Z,61.77
2018-06-24T01:08:31.337Z,60.73
2018-06-24T01:11:01.709Z,61.13
2018-06-24T01:13:33.570Z,62.20
2018-06-24T01:16:04.466Z,59.43
2018-06-24T01:18:34.661Z,60.20
2018-06-24T01:21:04.792Z,60.33
2018-06-24T01:23:35.820Z,59.40
2018-06-24T01:26:06.198Z,61.10
2018-06-24T01:28:36.313Z,60.20
2018-06-24T01:31:06.593Z,59.37
2018-06-24T01:33:39.146Z,60.23
2018-06-24T01:36:10.318Z,59.73
2018-06-24T01:38:40.965Z,59.97
2018-06-24T01:41:10.972Z,58.63
2018-06-24T01:43:41.822Z,60.17
2018-06-24T01:46:12.395Z,58.30
2018-06-24T01:48:42.705Z,57.83
2018-06-24T01:51:12.905Z,60.37
2018-06-24T01:53:43.048Z,58.53
2018-06-24T01:56:15.833Z,59.27
2018-06-24T01:58:46.136Z,59.57
2018-06-24T02:01:16.167Z,58.03
2018-06-24T02:03:46.501Z,60.83
2018-06-24T02:06:16.673Z,57.60
2018-06-24T02:08:47.050Z,59.23
2018-06-24T02:11:18.595Z,58.60
2018-06-24T02:13:49.050Z,57.50
2018-06-24T02:16:19.784Z,57.90
2018-06-24T02:18:49.849Z,60.13
2018-06-24T02:21:20.290Z,57.87
2018-06-24T02:23:50.532Z,58.70
2018-06-24T02:26:22.021Z,59.70
2018-06-24T02:28:52.376Z,59.57
2018-06-24T02:31:22.546Z,57.67
2018-06-24T02:33:52.681Z,57.93
2018-06-24T02:36:22.766Z,57.83
2018-06-24T02:38:53.394Z,59.20
2018-06-24T02:41:24.161Z,60.93
2018-06-24T02:43:54.610Z,56.67
2018-06-24T02:46:24.862Z,58.27
2018-06-24T02:48:55.498Z,58.90
2018-06-24T02:51:26.067Z,58.47
2018-06-24T02:53:56.409Z,58.73
2018-06-24T02:56:27.198Z,56.77
2018-06-24T02:58:59.548Z,57.77
2018-06-24T03:01:29.503Z,73.73
2018-06-24T03:04:03.446Z,57.73
2018-06-24T03:06:34.261Z,59.73
2018-06-24T03:09:06.376Z,57.77
2018-06-24T03:11:36.492Z,60.23
2018-06-24T03:14:08.098Z,54.93
2018-06-24T03:16:38.862Z,55.47
2018-06-24T03:19:09.092Z,55.30
2018-06-24T03:21:39.989Z,56.10
2018-06-24T03:24:10.059Z,57.37
2018-06-24T03:26:40.442Z,58.00
2018-06-24T03:29:10.580Z,56.87
2018-06-24T03:31:41.205Z,57.23
2018-06-24T03:34:11.341Z,56.93
2018-06-24T03:36:41.652Z,57.03
2018-06-24T03:39:12.424Z,56.87
2018-06-24T03:41:43.133Z,55.97
2018-06-24T03:44:13.985Z,58.33
2018-06-24T03:46:44.301Z,57.73
2018-06-24T03:49:15.741Z,56.40
2018-06-24T03:51:48.771Z,55.60
2018-06-24T03:54:18.910Z,55.77
2018-06-24T03:56:49.314Z,54.93
2018-06-24T03:59:19.876Z,57.47
2018-06-24T04:01:50.819Z,58.83
2018-06-24T04:04:21.196Z,57.37
2018-06-24T04:06:51.448Z,56.07
2018-06-24T04:09:21.901Z,54.57
2018-06-24T04:11:52.203Z,57.40
2018-06-24T04:14:22.804Z,55.47
2018-06-24T04:16:54.098Z,55.77
2018-06-24T04:19:24.478Z,58.97
2018-06-24T04:21:54.813Z,60.43
2018-06-24T04:24:26.176Z,56.80
2018-06-24T04:26:56.735Z,58.03
2018-06-24T04:29:26.903Z,58.30
2018-06-24T04:31:57.175Z,55.47
2018-06-24T04:34:27.936Z,55.57
2018-06-24T04:36:58.754Z,59.43
2018-06-24T04:39:29.695Z,58.90
2018-06-24T04:42:01.527Z,56.07
2018-06-24T04:44:31.871Z,54.23
2018-06-24T04:47:02.108Z,55.27
2018-06-24T04:49:32.492Z,60.07
2018-06-24T04:52:03.306Z,58.57
2018-06-24T04:54:34.037Z,59.27
2018-06-24T04:57:04.423Z,57.53
2018-06-24T04:59:35.381Z,58.60
2018-06-24T05:02:06.649Z,58.60
2018-06-24T05:04:37.025Z,61.80
2018-06-24T05:07:07.871Z,60.07
2018-06-24T05:09:38.547Z,58.13
2018-06-24T05:12:08.658Z,58.43
2018-06-24T05:14:39.197Z,59.03
2018-06-24T05:17:09.552Z,59.23
2018-06-24T05:19:40.334Z,59.23
2018-06-24T05:22:10.687Z,58.37
2018-06-24T05:24:41.960Z,59.57
2018-06-24T05:27:13.746Z,60.27
2018-06-24T05:29:43.976Z,58.77
2018-06-24T05:32:14.491Z,60.90
2018-06-24T05:34:45.038Z,58.03
2018-06-24T05:37:15.476Z,60.43
2018-06-24T05:39:45.984Z,59.30
2018-06-24T05:42:19.271Z,58.53
2018-06-24T05:44:50.361Z,60.00
2018-06-24T05:47:21.409Z,56.97
2018-06-24T05:49:52.175Z,59.00
2018-06-24T05:52:22.768Z,59.37
2018-06-24T05:54:53.128Z,58.80
2018-06-24T05:57:23.365Z,62.60
2018-06-24T05:59:53.917Z,58.70
2018-06-24T06:02:24.225Z,59.50
2018-06-24T06:04:54.913Z,59.77
2018-06-24T06:07:25.108Z,61.10
2018-06-24T06:09:55.440Z,58.57
2018-06-24T06:12:25.885Z,58.97
2018-06-24T06:14:56.146Z,60.23
2018-06-24T06:17:27.505Z,61.50
2018-06-24T06:19:57.672Z,61.50
2018-06-24T06:22:28.048Z,59.63
2018-06-24T06:24:58.288Z,62.30
2018-06-24T06:27:28.852Z,60.13
2018-06-24T06:29:58.911Z,61.90
2018-06-24T06:32:29.363Z,59.40
2018-06-24T06:34:59.832Z,60.30
2018-06-24T06:37:30.829Z,62.57
2018-06-24T06:40:00.990Z,62.83
2018-06-24T06:42:31.169Z,63.33
2018-06-24T06:45:01.888Z,63.53
2018-06-24T06:47:32.093Z,62.03
2018-06-24T06:50:02.109Z,63.13
2018-06-24T06:52:32.354Z,61.97
2018-06-24T06:55:03.206Z,64.53
2018-06-24T06:57:33.513Z,65.90
2018-06-24T07:00:03.887Z,64.40
2018-06-24T07:02:34.166Z,62.33
2018-06-24T07:05:04.472Z,59.80
2018-06-24T07:07:34.640Z,62.70
2018-06-24T07:10:05.124Z,62.57
2018-06-24T07:12:35.332Z,61.77
2018-06-24T07:15:06.081Z,63.90
2018-06-24T07:17:36.049Z,66.17
2018-06-24T07:20:06.520Z,64.90
2018-06-24T07:22:36.513Z,66.23
2018-06-24T07:25:06.931Z,67.80
2018-06-24T07:27:36.961Z,67.10
2018-06-24T07:30:07.407Z,65.63
2018-06-24T07:32:37.784Z,66.87
2018-06-24T07:35:17.196Z,66.70
2018-06-24T07:37:47.309Z,65.43
2018-06-24T07:40:17.594Z,67.83
2018-06-24T07:42:47.998Z,67.67
2018-06-24T07:45:18.198Z,66.70
2018-06-24T07:47:48.264Z,66.23
2018-06-24T07:50:18.495Z,67.53
2018-06-24T07:52:48.792Z,68.40
2018-06-24T07:55:19.465Z,65.10
2018-06-24T07:57:49.840Z,66.90
2018-06-24T08:00:20.136Z,70.17
2018-06-24T08:02:51.087Z,65.40
2018-06-24T08:05:22.594Z,66.30
2018-06-24T08:07:52.925Z,68.17
2018-06-24T08:10:23.212Z,63.27
2018-06-24T08:12:54.318Z,64.43
2018-06-24T08:15:25.060Z,64.27
2018-06-24T08:17:56.125Z,65.77
2018-06-24T08:20:26.589Z,65.97
2018-06-24T08:22:56.882Z,66.97
2018-06-24T08:25:27.224Z,67.03
2018-06-24T08:27:57.412Z,70.33
2018-06-24T08:30:27.611Z,68.27
2018-06-24T08:32:57.921Z,67.23
2018-06-24T08:35:28.158Z,69.23
2018-06-24T08:37:58.898Z,68.57
2018-06-24T08:40:29.356Z,72.13
2018-06-24T08:43:00.646Z,76.03
2018-06-24T08:45:31.129Z,68.93
2018-06-24T08:48:01.621Z,67.63
2018-06-24T08:50:32.057Z,67.70
2018-06-24T08:53:04.547Z,71.60
2018-06-24T08:55:35.058Z,68.50
2018-06-24T08:58:05.723Z,71.50
2018-06-24T09:00:35.959Z,68.13
2018-06-24T09:03:06.987Z,72.37
2018-06-24T09:05:37.282Z,68.40
2018-06-24T09:08:07.927Z,66.50
2018-06-24T09:10:38.117Z,69.97
2018-06-24T09:13:11.096Z,71.57
2018-06-24T09:15:43.384Z,68.57
2018-06-24T09:18:15.482Z,69.40
2018-06-24T09:20:46.422Z,76.27
2018-06-24T09:23:17.045Z,74.07
2018-06-24T09:25:47.689Z,75.13
2018-06-24T09:28:18.335Z,71.83
2018-06-24T09:30:49.066Z,71.43
2018-06-24T09:33:20.373Z,68.57
2018-06-24T09:35:51.329Z,74.03
2018-06-24T09:38:22.915Z,72.47
2018-06-24T09:40:53.391Z,72.87
2018-06-24T09:43:24.697Z,75.10
2018-06-24T09:45:54.838Z,70.53
2018-06-24T09:48:25.082Z,70.80
2018-06-24T09:50:55.754Z,68.30
2018-06-24T09:53:26.019Z,67.07
2018-06-24T09:55:57.829Z,68.10
2018-06-24T09:58:28.648Z,70.07
2018-06-24T10:00:58.835Z,71.10
2018-06-24T10:03:28.940Z,70.47
2018-06-24T10:06:00.051Z,70.03
2018-06-24T10:08:30.360Z,68.80
2018-06-24T10:11:00.749Z,71.73
2018-06-24T10:13:31.092Z,70.53
2018-06-24T10:16:01.200Z,76.27
2018-06-24T10:18:31.436Z,73.63
2018-06-24T10:21:01.644Z,69.30
2018-06-24T10:23:31.934Z,70.50
2018-06-24T10:26:03.308Z,71.30
2018-06-24T10:28:34.179Z,71.23
2018-06-24T10:31:04.674Z,71.90
2018-06-24T10:33:34.832Z,73.90
2018-06-24T10:36:05.117Z,69.90
2018-06-24T10:38:35.412Z,73.50
2018-06-24T10:41:05.519Z,72.47
2018-06-24T10:43:36.170Z,72.40
2018-06-24T10:46:06.495Z,70.63
2018-06-24T10:48:37.469Z,75.10
2018-06-24T10:51:07.881Z,74.10
2018-06-24T10:53:39.081Z,74.37
2018-06-24T10:56:09.426Z,72.57
2018-06-24T10:58:39.755Z,71.40
2018-06-24T11:01:09.809Z,103.90
2018-06-24T11:03:41.386Z,75.30
2018-06-24T11:06:12.024Z,72.70
2018-06-24T11:08:42.767Z,72.03
2018-06-24T11:11:13.201Z,70.57
2018-06-24T11:13:43.548Z,74.53
2018-06-24T11:16:14.274Z,73.47
2018-06-24T11:18:45.873Z,76.10
2018-06-24T11:21:16.649Z,72.70
2018-06-24T11:23:47.015Z,74.10
2018-06-24T11:26:18.718Z,72.50
2018-06-24T11:28:50.302Z,74.80
2018-06-24T11:31:21.598Z,78.23
2018-06-24T11:33:51.721Z,74.03
2018-06-24T11:36:22.286Z,69.60
2018-06-24T11:38:52.534Z,73.23
2018-06-24T11:41:22.882Z,75.87
2018-06-24T11:43:54.936Z,74.23
2018-06-24T11:46:25.620Z,75.27
2018-06-24T11:48:56.237Z,75.60
2018-06-24T11:51:33.545Z,73.60
2018-06-24T11:54:04.579Z,70.67
2018-06-24T11:56:35.173Z,72.00
2018-06-24T11:59:05.461Z,75.50
2018-06-24T12:01:35.928Z,73.53
2018-06-24T12:04:06.728Z,75.20
2018-06-24T12:06:36.778Z,72.80
2018-06-24T12:09:11.605Z,72.70
2018-06-24T12:11:45.045Z,72.70
2018-06-24T12:14:17.072Z,74.53
2018-06-24T12:16:47.314Z,70.90
2018-06-24T12:19:18.506Z,74.17
2018-06-24T12:21:49.677Z,73.50
2018-06-24T12:24:22.189Z,73.77
2018-06-24T12:26:54.895Z,74.47
2018-06-24T12:29:27.366Z,73.40
2018-06-24T12:31:59.252Z,72.07
2018-06-24T12:34:30.076Z,72.60
2018-06-24T12:37:00.993Z,75.23
2018-06-24T12:39:31.397Z,74.40
2018-06-24T12:42:01.524Z,73.63
2018-06-24T12:44:32.201Z,70.67
2018-06-24T12:47:02.722Z,73.97
2018-06-24T12:49:33.721Z,72.60
2018-06-24T12:52:05.430Z,73.23
2018-06-24T12:54:35.790Z,74.93
2018-06-24T12:57:07.470Z,74.67
2018-06-24T12:59:38.560Z,72.33
2018-06-24T13:02:09.319Z,74.03
2018-06-24T13:04:40.026Z,72.57
2018-06-24T13:07:10.446Z,71.80
2018-06-24T13:09:40.600Z,75.40
2018-06-24T13:12:10.925Z,74.67
2018-06-24T13:14:41.416Z,75.67
2018-06-24T13:17:12.640Z,72.37
2018-06-24T13:19:43.836Z,73.83
2018-06-24T13:22:14.065Z,72.73
2018-06-24T13:24:44.364Z,77.97
2018-06-24T13:27:14.742Z,74.27
2018-06-24T13:29:45.091Z,75.67
2018-06-24T13:32:15.360Z,75.10
2018-06-24T13:34:45.886Z,74.80
2018-06-24T13:37:16.820Z,73.37
2018-06-24T13:39:47.337Z,74.33
2018-06-24T13:42:18.037Z,74.30
2018-06-24T13:44:48.369Z,75.93
2018-06-24T13:47:18.617Z,75.27
2018-06-24T13:49:49.237Z,78.20
2018-06-24T13:52:19.945Z,76.80
2018-06-24T13:54:51.104Z,81.93
2018-06-24T13:57:21.265Z,76.23
2018-06-24T13:59:51.661Z,81.27
2018-06-24T14:02:21.790Z,81.67
2018-06-24T14:04:52.109Z,78.87
2018-06-24T14:07:22.393Z,81.97
2018-06-24T14:09:52.733Z,83.40
2018-06-24T14:12:23.016Z,80.93
2018-06-24T14:14:53.742Z,81.50
2018-06-24T14:17:24.522Z,83.47
2018-06-24T14:19:55.108Z,82.33
2018-06-24T14:22:25.355Z,103.47
2018-06-24T14:24:55.833Z,86.05
2018-06-24T14:27:26.255Z,90.22
2018-06-24T14:29:56.558Z,86.42
2018-06-24T14:32:27.020Z,82.27
2018-06-24T14:34:57.268Z,87.42
2018-06-24T14:37:27.748Z,86.10
2018-06-24T14:39:57.836Z,84.62
2018-06-24T14:42:28.713Z,83.27
2018-06-24T14:44:59.257Z,86.02
2018-06-24T14:47:30.504Z,84.52
2018-06-24T14:50:01.189Z,84.80
2018-06-24T14:52:31.997Z,84.40
2018-06-24T14:55:03.141Z,81.53
2018-06-24T14:57:33.889Z,83.55
2018-06-24T15:00:03.956Z,86.17
2018-06-24T15:02:36.057Z,88.12
2018-06-24T15:05:06.538Z,87.33
2018-06-24T15:07:37.021Z,85.00
2018-06-24T15:10:07.655Z,89.35
2018-06-24T15:12:37.978Z,83.87
2018-06-24T15:15:08.413Z,84.62
2018-06-24T15:17:38.645Z,86.42
2018-06-24T15:20:08.745Z,83.07
2018-06-24T15:22:39.496Z,87.27
2018-06-24T15:25:09.972Z,86.08
2018-06-24T15:27:40.312Z,85.30
2018-06-24T15:30:10.774Z,84.10
2018-06-24T15:32:40.978Z,83.90
2018-06-24T15:35:11.603Z,85.00
2018-06-24T15:37:41.995Z,84.83
2018-06-24T15:40:11.786Z,86.70
2018-06-24T15:42:42.278Z,83.55
2018-06-24T15:45:12.685Z,84.58
2018-06-24T15:47:44.277Z,87.08
2018-06-24T15:50:14.651Z,85.00
2018-06-24T15:52:45.347Z,85.07
2018-06-24T15:55:15.913Z,85.47
2018-06-24T15:57:46.500Z,88.92
2018-06-24T16:00:17.320Z,86.47
2018-06-24T16:02:48.426Z,84.75
2018-06-24T16:05:20.152Z,89.52
2018-06-24T16:07:52.848Z,85.75
2018-06-24T16:10:24.021Z,82.20
2018-06-24T16:13:00.775Z,88.50
2018-06-24T16:15:31.965Z,87.00
2018-06-24T16:18:04.613Z,86.80
2018-06-24T16:20:38.937Z,85.30
2018-06-24T16:23:09.565Z,83.75
2018-06-24T16:25:40.378Z,83.37
2018-06-24T16:28:11.490Z,82.47
2018-06-24T16:30:43.379Z,83.52
2018-06-24T16:33:16.909Z,81.78
2018-06-24T16:35:49.647Z,84.72
2018-06-24T16:38:21.728Z,85.05
2018-06-24T16:40:52.444Z,83.37
2018-06-24T16:43:24.088Z,84.30
2018-06-24T16:45:54.179Z,84.40
2018-06-24T16:48:24.981Z,85.90
2018-06-24T16:50:55.107Z,87.78
2018-06-24T16:53:25.684Z,84.00
2018-06-24T16:55:57.061Z,87.20
2018-06-24T16:58:27.745Z,81.72
2018-06-24T17:00:58.586Z,83.15
2018-06-24T17:03:29.451Z,82.70
2018-06-24T17:06:00.418Z,83.78
2018-06-24T17:08:31.872Z,86.20
2018-06-24T17:11:02.938Z,81.78
2018-06-24T17:13:33.795Z,83.52
2018-06-24T17:16:04.116Z,84.45
2018-06-24T17:18:35.139Z,86.90
2018-06-24T17:21:05.514Z,84.70
2018-06-24T17:23:35.942Z,83.75
2018-06-24T17:26:07.081Z,89.15
2018-06-24T17:28:37.665Z,84.00
2018-06-24T17:31:08.315Z,89.65
2018-06-24T17:33:39.720Z,87.20
2018-06-24T17:36:09.978Z,90.05
2018-06-24T17:38:40.633Z,84.55
2018-06-24T17:41:12.185Z,85.10
2018-06-24T17:43:43.880Z,89.65
2018-06-24T17:46:15.488Z,86.17
2018-06-24T17:48:45.949Z,84.92
2018-06-24T17:51:17.300Z,84.50
2018-06-24T17:53:49.035Z,84.72
2018-06-24T17:56:19.911Z,87.20
2018-06-24T17:58:51.702Z,87.30
2018-06-24T18:01:23.481Z,85.85
2018-06-24T18:03:59.680Z,82.22
2018-06-24T18:06:30.138Z,81.92
2018-06-24T18:09:00.785Z,85.20
2018-06-24T18:11:31.646Z,81.45
2018-06-24T18:14:02.870Z,82.22
2018-06-24T18:16:33.644Z,83.12
2018-06-24T18:19:04.095Z,83.50
2018-06-24T18:21:34.038Z,85.20
2018-06-24T18:24:07.220Z,83.82
2018-06-24T18:26:37.510Z,80.67
2018-06-24T18:29:07.539Z,82.17
2018-06-24T18:31:39.774Z,83.97
2018-06-24T18:34:13.493Z,83.27
2018-06-24T18:36:44.238Z,84.10
2018-06-24T18:39:15.039Z,82.80
2018-06-24T18:41:45.309Z,84.57
2018-06-24T18:44:16.085Z,83.63
2018-06-24T18:46:46.276Z,81.77
2018-06-24T18:49:21.085Z,86.17
2018-06-24T18:51:53.414Z,84.53
2018-06-24T18:54:23.851Z,83.97
2018-06-24T18:56:56.155Z,85.00
2018-06-24T18:59:27.093Z,82.83
2018-06-24T19:01:58.037Z,83.83
2018-06-24T19:04:29.183Z,82.17
2018-06-24T19:07:00.158Z,83.83
2018-06-24T19:09:31.179Z,83.17
2018-06-24T19:12:02.541Z,83.57
2018-06-24T19:14:33.151Z,80.83
2018-06-24T19:17:03.471Z,81.70
2018-06-24T19:19:34.987Z,84.37
2018-06-24T19:22:05.629Z,81.80
2018-06-24T19:24:37.135Z,81.47
2018-06-24T19:27:07.708Z,82.30
2018-06-24T19:29:38.590Z,79.90
2018-06-24T19:32:08.921Z,79.13
2018-06-24T19:34:39.712Z,79.60
2018-06-24T19:37:10.524Z,81.13
2018-06-24T19:39:41.141Z,79.63
2018-06-24T19:42:11.551Z,81.50
2018-06-24T19:44:42.293Z,80.33
2018-06-24T19:47:26.301Z,80.07
2018-06-24T19:49:57.420Z,78.83
2018-06-24T19:53:12.789Z,85.70
2018-06-24T19:55:44.245Z,77.97
2018-06-24T19:58:15.048Z,75.93
2018-06-24T20:00:47.465Z,77.83
2018-06-24T20:03:17.684Z,77.87
2018-06-24T20:05:47.932Z,76.90
2018-06-24T20:08:18.352Z,78.67
2018-06-24T20:10:48.486Z,77.17
2018-06-24T20:13:19.655Z,76.20
2018-06-24T20:15:49.622Z,78.20
2018-06-24T20:18:20.746Z,81.90
2018-06-24T20:20:51.292Z,74.20
2018-06-24T20:23:22.198Z,76.70
2018-06-24T20:25:53.121Z,74.17
2018-06-24T20:28:23.291Z,75.40
2018-06-24T20:30:53.688Z,76.93
2018-06-24T20:33:24.253Z,97.27
2018-06-24T20:35:55.226Z,95.83
2018-06-24T20:38:25.486Z,87.03
2018-06-24T20:40:55.894Z,80.97
2018-06-24T20:43:26.245Z,75.40
2018-06-24T20:45:56.438Z,77.87
2018-06-24T20:48:26.851Z,74.90
2018-06-24T20:51:00.109Z,77.17
2018-06-24T20:53:33.602Z,75.00
2018-06-24T20:56:04.200Z,73.23
2018-06-24T20:58:34.764Z,74.43
2018-06-24T21:01:04.922Z,70.93
2018-06-24T21:03:36.649Z,74.90
2018-06-24T21:06:07.669Z,73.63
2018-06-24T21:08:37.868Z,72.23
2018-06-24T21:11:08.506Z,74.23
2018-06-24T21:13:38.566Z,80.40
2018-06-24T21:16:08.710Z,77.30
2018-06-24T21:18:38.799Z,75.27
2018-06-24T21:21:09.023Z,72.03
2018-06-24T21:23:39.585Z,74.23
2018-06-24T21:26:09.791Z,76.90
2018-06-24T21:28:40.660Z,77.20
2018-06-24T21:31:10.882Z,76.67
2018-06-24T21:33:41.306Z,76.63
2018-06-24T21:36:11.635Z,77.40
2018-06-24T21:38:41.872Z,73.30
2018-06-24T21:41:12.734Z,72.77
2018-06-24T21:43:43.315Z,75.00
2018-06-24T21:46:13.313Z,70.53
2018-06-24T21:48:44.470Z,73.07
2018-06-24T21:51:15.027Z,73.97
2018-06-24T21:53:45.308Z,69.90
2018-06-24T21:56:15.592Z,71.00
2018-06-24T21:58:46.326Z,72.47
2018-06-24T22:01:16.778Z,70.90
2018-06-24T22:03:46.845Z,72.17
2018-06-24T22:06:17.017Z,71.23
2018-06-24T22:08:47.217Z,70.97
2018-06-24T22:11:17.352Z,70.37
2018-06-24T22:13:47.661Z,70.53
2018-06-24T22:16:18.009Z,65.83
2018-06-24T22:18:48.172Z,69.80
2018-06-24T22:21:18.561Z,72.37
2018-06-24T22:23:48.949Z,67.93
2018-06-24T22:26:19.251Z,66.90
2018-06-24T22:28:49.650Z,67.40
2018-06-24T22:31:20.162Z,70.40
2018-06-24T22:33:50.353Z,69.40
2018-06-24T22:36:20.711Z,67.90
2018-06-24T22:38:50.759Z,69.67
2018-06-24T22:41:21.300Z,68.63
2018-06-24T22:43:51.998Z,70.07
2018-06-24T22:46:22.329Z,66.43
2018-06-24T22:48:52.685Z,66.67
2018-06-24T22:51:22.986Z,66.83
2018-06-24T22:53:53.008Z,66.00
2018-06-24T22:56:23.289Z,66.50
2018-06-24T22:59:09.649Z,68.93
2018-06-24T23:01:40.038Z,71.73
2018-06-24T23:04:10.310Z,73.83
2018-06-24T23:06:40.887Z,75.17
2018-06-24T23:09:11.271Z,72.13
2018-06-24T23:11:41.549Z,69.23
2018-06-24T23:14:11.791Z,71.73
2018-06-24T23:16:42.610Z,71.87
2018-06-24T23:19:12.874Z,67.67
2018-06-24T23:21:43.162Z,67.73
2018-06-24T23:24:16.558Z,66.37
2018-06-24T23:26:46.861Z,65.60
2018-06-24T23:29:17.134Z,65.53
2018-06-24T23:31:47.647Z,67.30
2018-06-24T23:34:17.939Z,71.20
2018-06-24T23:36:48.020Z,64.43
2018-06-24T23:39:18.486Z,63.87
2018-06-24T23:41:48.893Z,65.53
2018-06-24T23:44:19.034Z,64.07
2018-06-24T23:46:49.340Z,64.97
2018-06-24T23:49:19.430Z,66.57
2018-06-24T23:51:50.014Z,65.47
2018-06-24T23:54:20.329Z,65.97
2018-06-24T23:56:50.606Z,69.20
2018-06-24T23:59:21.905Z,68.60
